createdAt,value
2019-05-05T00:01:27.692Z,5.70
2019-05-05T00:04:10.520Z,5.70
2019-05-05T00:06:37.696Z,5.70
2019-05-05T00:09:05.462Z,5.60
2019-05-05T00:11:47.124Z,5.60
2019-05-05T00:14:30.984Z,5.60
2019-05-05T00:17:05.337Z,5.60
2019-05-05T00:19:35.344Z,5.60
2019-05-05T00:22:01.772Z,5.60
2019-05-05T00:24:28.972Z,5.50
2019-05-05T00:26:56.165Z,5.50
2019-05-05T00:29:25.188Z,5.40
2019-05-05T00:31:54.633Z,5.40
2019-05-05T00:34:21.656Z,5.40
2019-05-05T00:36:48.849Z,5.40
2019-05-05T00:39:16.052Z,5.30
2019-05-05T00:41:44.922Z,5.20
2019-05-05T00:44:12.312Z,5.30
2019-05-05T00:46:57.722Z,5.30
2019-05-05T00:49:26.992Z,5.20
2019-05-05T00:51:54.713Z,5.10
2019-05-05T00:54:24.282Z,5.10
2019-05-05T00:56:51.324Z,5.00
2019-05-05T00:59:20.444Z,4.90
2019-05-05T01:02:09.872Z,5.00
2019-05-05T01:04:44.912Z,5.00
2019-05-05T01:07:14.204Z,5.00
2019-05-05T01:09:41.711Z,5.10
2019-05-05T01:12:09.232Z,5.10
2019-05-05T01:14:36.452Z,5.20
2019-05-05T01:17:05.273Z,5.20
2019-05-05T01:19:34.939Z,5.20
2019-05-05T01:22:02.268Z,5.20
2019-05-05T01:24:29.537Z,5.20
2019-05-05T01:26:57.508Z,5.30
2019-05-05T01:29:25.295Z,5.20
2019-05-05T01:31:54.444Z,5.30
2019-05-05T01:34:34.944Z,5.20
2019-05-05T01:37:07.872Z,5.30
2019-05-05T01:40:09.720Z,5.20
2019-05-05T01:42:37.033Z,5.10
2019-05-05T01:45:04.795Z,5.10
2019-05-05T01:47:31.993Z,5.10
2019-05-05T01:50:13.737Z,5.10
2019-05-05T01:52:30.179Z,5.20
2019-05-05T01:54:57.372Z,5.10
2019-05-05T01:57:25.344Z,5.20
2019-05-05T01:59:52.548Z,5.20
2019-05-05T02:02:19.760Z,5.20
2019-05-05T02:04:46.956Z,5.20
2019-05-05T02:07:14.654Z,5.20
2019-05-05T02:09:42.084Z,5.10
2019-05-05T02:12:09.264Z,5.20
2019-05-05T02:14:36.475Z,5.20
2019-05-05T02:17:05.059Z,5.40
2019-05-05T02:19:32.508Z,5.20
2019-05-05T02:21:59.716Z,5.20
2019-05-05T02:24:26.932Z,5.20
2019-05-05T02:26:54.678Z,5.20
2019-05-05T02:29:35.349Z,5.20
2019-05-05T02:32:20.849Z,5.20
2019-05-05T02:34:55.952Z,5.20
2019-05-05T02:37:25.439Z,5.20
2019-05-05T02:40:01.386Z,5.30
2019-05-05T02:42:24.830Z,5.30
2019-05-05T02:44:54.288Z,5.20
2019-05-05T02:47:35.015Z,5.20
2019-05-05T02:50:05.427Z,5.30
2019-05-05T02:52:34.667Z,5.40
2019-05-05T02:55:04.095Z,5.40
2019-05-05T02:57:31.733Z,5.40
2019-05-05T03:00:10.964Z,5.40
2019-05-05T03:02:38.141Z,5.40
2019-05-05T03:05:05.428Z,5.50
2019-05-05T03:07:34.421Z,5.50
2019-05-05T03:10:03.784Z,5.70
2019-05-05T03:12:34.701Z,5.50
2019-05-05T03:15:04.158Z,5.60
2019-05-05T03:17:33.952Z,5.50
2019-05-05T03:20:01.455Z,5.50
2019-05-05T03:22:28.636Z,5.60
2019-05-05T03:24:55.870Z,5.50
2019-05-05T03:27:23.810Z,5.60
2019-05-05T03:29:53.391Z,5.60
2019-05-05T03:32:20.930Z,5.60
2019-05-05T03:34:48.328Z,5.60
2019-05-05T03:37:15.533Z,5.50
2019-05-05T03:39:48.194Z,5.60
2019-05-05T03:42:49.800Z,5.50
2019-05-05T03:45:26.044Z,5.50
2019-05-05T03:47:54.102Z,5.50
2019-05-05T03:50:23.770Z,5.50
2019-05-05T03:52:51.096Z,5.50
2019-05-05T03:55:18.294Z,5.50
2019-05-05T03:57:45.474Z,5.50
2019-05-05T04:00:25.484Z,5.50
2019-05-05T04:02:57.760Z,5.50
2019-05-05T04:05:59.351Z,5.50
2019-05-05T04:08:26.728Z,5.50
2019-05-05T04:10:54.619Z,5.50
2019-05-05T04:13:24.186Z,5.50
2019-05-05T04:16:19.453Z,5.50
2019-05-05T04:18:54.264Z,5.60
2019-05-05T04:21:31.258Z,5.50
2019-05-05T04:23:50.696Z,5.50
2019-05-05T04:26:17.881Z,5.50
2019-05-05T04:28:45.092Z,5.70
2019-05-05T04:31:13.594Z,5.70
2019-05-05T04:33:41.094Z,5.70
2019-05-05T04:36:08.336Z,5.70
2019-05-05T04:38:35.532Z,5.70
2019-05-05T04:41:03.474Z,5.70
2019-05-05T04:43:30.946Z,5.70
2019-05-05T04:45:58.156Z,5.70
2019-05-05T04:48:31.753Z,5.80
2019-05-05T04:51:11.145Z,5.70
2019-05-05T04:53:57.976Z,5.80
2019-05-05T04:56:25.204Z,5.60
2019-05-05T04:58:54.357Z,5.50
2019-05-05T05:01:21.489Z,5.60
2019-05-05T05:03:56.419Z,5.60
2019-05-05T05:06:28.880Z,5.70
2019-05-05T05:08:56.061Z,5.80
2019-05-05T05:11:24.643Z,5.80
2019-05-05T05:13:52.048Z,5.70
2019-05-05T05:16:19.258Z,5.70
2019-05-05T05:18:46.453Z,5.70
2019-05-05T05:21:14.561Z,5.60
2019-05-05T05:23:44.220Z,5.70
2019-05-05T05:26:11.170Z,5.70
2019-05-05T05:28:38.354Z,5.70
2019-05-05T05:31:05.664Z,5.80
2019-05-05T05:33:34.456Z,5.90
2019-05-05T05:36:03.857Z,5.90
2019-05-05T05:38:31.115Z,6.00
2019-05-05T05:41:04.768Z,5.90
2019-05-05T05:43:54.389Z,6.00
2019-05-05T05:46:44.137Z,6.00
2019-05-05T05:49:19.376Z,6.20
2019-05-05T05:51:47.485Z,6.10
2019-05-05T05:54:14.676Z,6.00
2019-05-05T05:56:41.921Z,6.00
2019-05-05T05:59:09.124Z,6.10
2019-05-05T06:01:36.333Z,6.20
2019-05-05T06:04:04.071Z,6.30
2019-05-05T06:06:31.561Z,6.40
2019-05-05T06:08:58.844Z,6.40
2019-05-05T06:11:26.453Z,6.40
2019-05-05T06:13:54.474Z,6.40
2019-05-05T06:16:23.565Z,6.50
2019-05-05T06:18:50.885Z,6.50
2019-05-05T06:21:18.088Z,6.20
2019-05-05T06:23:45.269Z,6.20
2019-05-05T06:26:14.893Z,6.30
2019-05-05T06:28:41.572Z,6.20
2019-05-05T06:31:08.775Z,6.20
2019-05-05T06:33:35.988Z,6.10
2019-05-05T06:36:03.791Z,6.10
2019-05-05T06:38:31.177Z,6.10
2019-05-05T06:41:16.578Z,6.20
2019-05-05T06:44:03.804Z,6.30
2019-05-05T06:46:50.824Z,6.30
2019-05-05T06:49:18.024Z,6.30
2019-05-05T06:51:45.208Z,6.50
2019-05-05T06:54:13.748Z,6.60
2019-05-05T06:56:41.104Z,6.80
2019-05-05T06:59:08.302Z,6.90
2019-05-05T07:01:35.577Z,6.80
2019-05-05T07:04:03.496Z,6.90
2019-05-05T07:06:30.784Z,6.90
2019-05-05T07:08:57.977Z,7.00
2019-05-05T07:11:25.182Z,7.00
2019-05-05T07:13:53.687Z,7.00
2019-05-05T07:16:21.137Z,6.90
2019-05-05T07:18:48.344Z,7.00
2019-05-05T07:21:15.544Z,7.00
2019-05-05T07:23:44.525Z,7.00
2019-05-05T07:26:14.178Z,7.00
2019-05-05T07:28:40.932Z,7.20
2019-05-05T07:31:08.151Z,7.30
2019-05-05T07:33:35.428Z,7.20
2019-05-05T07:36:20.809Z,7.10
2019-05-05T07:38:48.826Z,7.30
2019-05-05T07:41:16.140Z,7.30
2019-05-05T07:43:43.805Z,7.40
2019-05-05T07:46:11.057Z,7.60
2019-05-05T07:48:38.256Z,7.50
2019-05-05T07:51:05.550Z,7.60
2019-05-05T07:53:33.988Z,7.80
2019-05-05T07:56:01.189Z,7.70
2019-05-05T07:58:28.413Z,7.80
2019-05-05T08:00:55.587Z,7.80
2019-05-05T08:03:23.612Z,7.80
2019-05-05T08:05:51.093Z,7.80
2019-05-05T08:08:18.268Z,8.10
2019-05-05T08:10:45.456Z,8.20
2019-05-05T08:13:14.128Z,8.30
2019-05-05T08:15:56.697Z,8.40
2019-05-05T08:18:29.680Z,8.50
2019-05-05T08:20:59.827Z,8.60
2019-05-05T08:23:41.813Z,8.80
2019-05-05T08:26:18.013Z,8.70
2019-05-05T08:28:59.385Z,8.70
2019-05-05T08:31:44.605Z,8.80
2019-05-05T08:34:13.743Z,8.80
2019-05-05T08:36:40.979Z,8.70
2019-05-05T08:39:08.472Z,8.70
2019-05-05T08:41:35.666Z,8.60
2019-05-05T08:44:03.649Z,8.60
2019-05-05T08:46:31.057Z,8.60
2019-05-05T08:48:58.257Z,8.70
2019-05-05T08:51:25.436Z,8.90
2019-05-05T08:53:54.585Z,8.80
2019-05-05T08:56:23.795Z,8.90
2019-05-05T08:58:51.061Z,8.90
2019-05-05T09:01:18.267Z,8.90
2019-05-05T09:03:45.484Z,9.10
2019-05-05T09:06:13.764Z,9.30
2019-05-05T09:08:41.322Z,9.20
2019-05-05T09:11:08.612Z,9.10
2019-05-05T09:13:35.800Z,8.90
2019-05-05T09:16:03.805Z,8.70
2019-05-05T09:18:31.292Z,8.70
2019-05-05T09:20:58.812Z,8.80
2019-05-05T09:23:26.052Z,8.70
2019-05-05T09:26:13.960Z,8.70
2019-05-05T09:28:49.527Z,8.90
2019-05-05T09:31:16.729Z,9.20
2019-05-05T09:33:44.293Z,9.30
2019-05-05T09:36:13.797Z,9.10
2019-05-05T09:38:40.865Z,9.00
2019-05-05T09:41:08.052Z,9.20
2019-05-05T09:43:35.333Z,9.30
2019-05-05T09:46:03.932Z,9.50
2019-05-05T09:48:33.419Z,9.50
2019-05-05T09:51:00.447Z,9.30
2019-05-05T09:53:28.149Z,9.20
2019-05-05T09:55:56.224Z,9.10
2019-05-05T09:58:24.199Z,9.20
2019-05-05T10:00:52.190Z,9.40
2019-05-05T10:03:19.364Z,9.50
2019-05-05T10:05:46.652Z,9.60
2019-05-05T10:08:14.371Z,9.70
2019-05-05T10:10:44.063Z,10.10
2019-05-05T10:13:10.856Z,10.40
2019-05-05T10:15:38.073Z,10.70
2019-05-05T10:18:05.260Z,10.60
2019-05-05T10:20:34.237Z,10.50
2019-05-05T10:23:01.530Z,10.40
2019-05-05T10:25:42.184Z,10.20
2019-05-05T10:28:09.374Z,10.50
2019-05-05T10:30:36.560Z,10.60
2019-05-05T10:33:03.955Z,10.50
2019-05-05T10:35:31.240Z,10.20
2019-05-05T10:37:58.521Z,10.00
2019-05-05T10:40:30.013Z,9.80
2019-05-05T10:42:57.185Z,9.80
2019-05-05T10:45:24.736Z,10.10
2019-05-05T10:47:52.172Z,10.20
2019-05-05T10:50:19.364Z,10.30
2019-05-05T10:52:46.649Z,10.30
2019-05-05T10:55:14.616Z,10.30
2019-05-05T10:57:43.587Z,10.60
2019-05-05T11:00:15.236Z,10.40
2019-05-05T11:02:41.500Z,10.30
2019-05-05T11:05:09.395Z,10.40
2019-05-05T11:07:37.164Z,10.90
2019-05-05T11:10:04.894Z,10.80
2019-05-05T11:12:33.745Z,11.00
2019-05-05T11:15:01.060Z,11.20
2019-05-05T11:17:28.249Z,11.40
2019-05-05T11:19:55.444Z,11.30
2019-05-05T11:22:24.193Z,11.00
2019-05-05T11:24:58.215Z,10.60
2019-05-05T11:27:20.805Z,10.30
2019-05-05T11:30:06.308Z,10.30
2019-05-05T11:32:51.413Z,10.30
2019-05-05T11:35:20.432Z,10.30
2019-05-05T11:37:47.624Z,10.40
2019-05-05T11:40:16.724Z,10.50
2019-05-05T11:42:43.918Z,10.50
2019-05-05T11:45:11.316Z,10.50
2019-05-05T11:47:38.521Z,10.50
2019-05-05T11:50:06.041Z,10.50
2019-05-05T11:52:33.710Z,10.40
2019-05-05T11:55:09.832Z,10.30
2019-05-05T11:57:30.373Z,10.50
2019-05-05T11:59:58.503Z,10.50
2019-05-05T12:02:26.342Z,10.60
2019-05-05T12:04:54.047Z,10.70
2019-05-05T12:07:23.615Z,10.70
2019-05-05T12:09:54.993Z,10.60
2019-05-05T12:12:22.308Z,10.70
2019-05-05T12:14:50.613Z,10.60
2019-05-05T12:17:33.760Z,10.40
2019-05-05T12:20:04.591Z,10.40
2019-05-05T12:22:31.349Z,10.40
2019-05-05T12:24:58.837Z,10.20
2019-05-05T12:27:33.747Z,10.20
2019-05-05T12:30:05.079Z,10.00
2019-05-05T12:32:34.672Z,9.90
2019-05-05T12:35:01.371Z,9.70
2019-05-05T12:37:28.574Z,9.60
2019-05-05T12:39:55.956Z,9.80
2019-05-05T12:42:24.240Z,10.00
2019-05-05T12:45:00.013Z,10.10
2019-05-05T12:47:35.437Z,10.20
2019-05-05T12:50:03.451Z,10.20
2019-05-05T12:52:30.636Z,10.20
2019-05-05T12:54:57.840Z,10.30
2019-05-05T12:57:25.033Z,10.40
2019-05-05T12:59:53.680Z,10.40
2019-05-05T13:02:23.531Z,10.50
2019-05-05T13:04:50.941Z,10.60
2019-05-05T13:07:18.124Z,10.70
2019-05-05T13:09:45.304Z,10.60
2019-05-05T13:12:14.863Z,10.60
2019-05-05T13:14:43.725Z,10.40
2019-05-05T13:17:10.858Z,10.40
2019-05-05T13:19:56.362Z,10.40
2019-05-05T13:22:33.853Z,10.30
2019-05-05T13:25:20.856Z,10.20
2019-05-05T13:27:48.045Z,10.40
2019-05-05T13:30:15.565Z,10.50
2019-05-05T13:32:44.074Z,10.80
2019-05-05T13:35:14.216Z,11.20
2019-05-05T13:37:41.052Z,11.30
2019-05-05T13:40:08.612Z,11.20
2019-05-05T13:42:35.784Z,11.20
2019-05-05T13:45:20.276Z,11.00
2019-05-05T13:47:47.369Z,10.80
2019-05-05T13:50:18.993Z,10.50
2019-05-05T13:52:46.281Z,10.30
2019-05-05T13:55:13.934Z,10.40
2019-05-05T13:57:41.480Z,10.30
2019-05-05T14:00:11.460Z,10.30
2019-05-05T14:02:39.561Z,10.40
2019-05-05T14:05:06.846Z,10.60
2019-05-05T14:07:34.342Z,10.70
2019-05-05T14:10:03.803Z,10.60
2019-05-05T14:12:30.737Z,10.60
2019-05-05T14:14:57.930Z,10.30
2019-05-05T14:17:25.117Z,10.20
2019-05-05T14:20:04.202Z,10.10
2019-05-05T14:22:21.387Z,10.00
2019-05-05T14:24:56.276Z,10.00
2019-05-05T14:27:23.800Z,10.10
2019-05-05T14:29:59.269Z,10.20
2019-05-05T14:32:31.986Z,10.30
2019-05-05T14:35:05.863Z,10.30
2019-05-05T14:37:45.457Z,10.50
2019-05-05T14:40:13.269Z,10.50
2019-05-05T14:42:40.450Z,10.40
2019-05-05T14:45:09.594Z,10.00
2019-05-05T14:47:36.780Z,10.00
2019-05-05T14:50:04.805Z,10.00
2019-05-05T14:52:32.032Z,10.10
2019-05-05T14:54:59.304Z,10.30
2019-05-05T14:57:29.174Z,10.30
2019-05-05T14:59:56.760Z,10.30
2019-05-05T15:02:24.573Z,10.20
2019-05-05T15:04:53.916Z,10.20
2019-05-05T15:07:31.164Z,10.20
2019-05-05T15:10:16.449Z,10.10
2019-05-05T15:12:47.660Z,10.00
2019-05-05T15:15:14.940Z,9.90
2019-05-05T15:17:42.130Z,9.80
2019-05-05T15:20:09.524Z,9.80
2019-05-05T15:22:36.699Z,9.80
2019-05-05T15:25:04.596Z,9.80
2019-05-05T15:27:31.934Z,9.80
2019-05-05T15:29:59.193Z,9.60
2019-05-05T15:32:26.396Z,9.60
2019-05-05T15:34:54.607Z,9.50
2019-05-05T15:37:23.734Z,9.50
2019-05-05T15:39:53.413Z,9.70
2019-05-05T15:42:20.528Z,9.80
2019-05-05T15:44:47.713Z,9.80
2019-05-05T15:47:15.013Z,9.70
2019-05-05T15:49:43.980Z,9.70
2019-05-05T15:52:11.301Z,9.70
2019-05-05T15:54:38.506Z,9.70
2019-05-05T15:57:08.633Z,9.70
2019-05-05T15:59:34.784Z,9.50
2019-05-05T16:02:01.974Z,9.50
2019-05-05T16:04:29.180Z,9.60
2019-05-05T16:06:56.388Z,9.60
2019-05-05T16:09:23.782Z,9.40
2019-05-05T16:11:51.281Z,9.40
2019-05-05T16:14:18.761Z,9.40
2019-05-05T16:17:06.438Z,9.30
2019-05-05T16:19:50.815Z,9.40
2019-05-05T16:22:35.821Z,9.20
2019-05-05T16:25:10.264Z,9.20
2019-05-05T16:27:38.169Z,9.20
2019-05-05T16:30:06.130Z,9.30
2019-05-05T16:32:33.442Z,9.30
2019-05-05T16:35:03.583Z,9.30
2019-05-05T16:37:29.835Z,9.30
2019-05-05T16:39:57.036Z,9.40
2019-05-05T16:42:24.340Z,9.50
2019-05-05T16:44:51.516Z,9.50
2019-05-05T16:47:18.709Z,9.50
2019-05-05T16:49:45.896Z,9.50
2019-05-05T16:52:20.072Z,9.50
2019-05-05T16:55:05.343Z,9.50
2019-05-05T16:57:36.112Z,9.40
2019-05-05T17:00:01.762Z,9.40
2019-05-05T17:02:29.012Z,9.40
2019-05-05T17:04:56.200Z,9.30
2019-05-05T17:07:24.301Z,9.00
2019-05-05T17:09:51.567Z,8.80
2019-05-05T17:12:19.026Z,8.60
2019-05-05T17:15:04.523Z,8.60
2019-05-05T17:17:49.426Z,8.60
2019-05-05T17:20:18.588Z,8.70
2019-05-05T17:22:50.016Z,8.80
2019-05-05T17:25:17.296Z,8.70
2019-05-05T17:27:48.776Z,8.60
2019-05-05T17:30:14.053Z,8.50
2019-05-05T17:32:41.259Z,8.30
2019-05-05T17:35:08.553Z,8.10
2019-05-05T17:37:38.347Z,8.00
2019-05-05T17:40:17.241Z,7.90
2019-05-05T17:42:53.578Z,7.90
2019-05-05T17:45:38.978Z,7.90
2019-05-05T17:48:10.553Z,8.00
2019-05-05T17:51:00.612Z,7.90
2019-05-05T17:53:35.872Z,7.80
2019-05-05T17:56:04.364Z,7.60
2019-05-05T17:58:31.569Z,7.40
2019-05-05T18:01:00.196Z,7.30
2019-05-05T18:03:27.392Z,7.20
2019-05-05T18:06:32.033Z,7.20
2019-05-05T18:09:09.056Z,7.40
2019-05-05T18:11:44.900Z,7.30
2019-05-05T18:14:17.680Z,7.30
2019-05-05T18:16:54.049Z,7.20
2019-05-05T18:19:20.996Z,7.40
2019-05-05T18:21:48.616Z,7.40
2019-05-05T18:24:15.817Z,7.50
2019-05-05T18:26:43.565Z,7.40
2019-05-05T18:29:11.019Z,7.50
2019-05-05T18:31:38.348Z,7.60
2019-05-05T18:34:05.552Z,7.80
2019-05-05T18:36:32.733Z,7.70
2019-05-05T18:38:59.942Z,7.70
2019-05-05T18:41:34.438Z,7.70
2019-05-05T18:44:24.293Z,7.70
2019-05-05T18:47:11.929Z,7.70
2019-05-05T18:49:38.552Z,7.60
2019-05-05T18:52:05.742Z,7.60
2019-05-05T18:54:34.001Z,7.50
2019-05-05T18:57:01.531Z,7.40
2019-05-05T18:59:29.150Z,7.40
2019-05-05T19:02:30.842Z,7.40
2019-05-05T19:05:23.792Z,7.40
2019-05-05T19:08:10.748Z,7.40
2019-05-05T19:10:38.917Z,7.50
2019-05-05T19:13:06.110Z,7.40
2019-05-05T19:15:34.943Z,7.30
2019-05-05T19:18:04.079Z,7.20
2019-05-05T19:20:49.407Z,7.30
2019-05-05T19:23:16.780Z,7.20
2019-05-05T19:25:44.887Z,7.10
2019-05-05T19:28:14.119Z,7.10
2019-05-05T19:30:41.396Z,7.20
2019-05-05T19:33:08.608Z,7.20
2019-05-05T19:35:44.002Z,7.10
2019-05-05T19:38:05.134Z,7.10
2019-05-05T19:40:33.939Z,7.00
2019-05-05T19:43:01.428Z,6.90
2019-05-05T19:45:28.626Z,6.90
2019-05-05T19:47:55.833Z,6.90
2019-05-05T19:50:30.409Z,6.80
2019-05-05T19:52:57.576Z,6.70
2019-05-05T19:55:24.771Z,6.80
2019-05-05T19:57:53.918Z,6.90
2019-05-05T20:00:23.468Z,6.90
2019-05-05T20:03:02.225Z,7.00
2019-05-05T20:05:20.313Z,6.90
2019-05-05T20:07:47.637Z,6.70
2019-05-05T20:10:14.870Z,6.70
2019-05-05T20:12:44.895Z,6.60
2019-05-05T20:15:17.612Z,6.50
2019-05-05T20:17:44.953Z,6.50
2019-05-05T20:20:13.810Z,6.50
2019-05-05T20:22:41.281Z,6.40
2019-05-05T20:25:09.036Z,6.50
2019-05-05T20:27:36.329Z,6.40
2019-05-05T20:30:06.564Z,6.20
2019-05-05T20:32:40.809Z,6.10
2019-05-05T20:35:20.076Z,6.00
2019-05-05T20:37:51.224Z,6.00
2019-05-05T20:40:20.970Z,6.10
2019-05-05T20:42:48.152Z,6.10
2019-05-05T20:45:18.961Z,6.20
2019-05-05T20:47:46.166Z,6.30
2019-05-05T20:50:13.597Z,6.40
2019-05-05T20:52:40.785Z,6.40
2019-05-05T20:55:08.257Z,6.50
2019-05-05T20:57:35.556Z,6.60
2019-05-05T21:00:03.200Z,6.60
2019-05-05T21:02:30.500Z,6.70
2019-05-05T21:04:57.702Z,6.70
2019-05-05T21:07:26.537Z,6.80
2019-05-05T21:09:53.932Z,6.70
2019-05-05T21:12:21.145Z,6.60
2019-05-05T21:14:49.240Z,6.70
2019-05-05T21:17:16.467Z,6.70
2019-05-05T21:19:43.766Z,6.60
2019-05-05T21:22:36.304Z,6.50
2019-05-05T21:25:04.989Z,6.50
2019-05-05T21:27:34.042Z,6.50
2019-05-05T21:30:03.893Z,6.60
2019-05-05T21:32:30.469Z,6.40
2019-05-05T21:34:57.661Z,6.40
2019-05-05T21:37:25.010Z,6.50
2019-05-05T21:39:52.336Z,6.40
2019-05-05T21:42:19.521Z,6.40
2019-05-05T21:44:46.728Z,6.50
2019-05-05T21:47:14.298Z,6.50
2019-05-05T21:49:41.608Z,6.40
2019-05-05T21:52:21.376Z,6.40
2019-05-05T21:54:58.460Z,6.40
2019-05-05T21:57:54.000Z,6.30
2019-05-05T22:00:39.334Z,6.40
2019-05-05T22:03:07.025Z,6.40
2019-05-05T22:05:34.208Z,6.30
2019-05-05T22:08:01.403Z,6.20
2019-05-05T22:10:28.827Z,6.30
2019-05-05T22:12:56.023Z,6.50
2019-05-05T22:15:24.316Z,6.40
2019-05-05T22:17:51.516Z,6.40
2019-05-05T22:20:28.392Z,6.50
2019-05-05T22:22:55.644Z,6.40
2019-05-05T22:25:22.880Z,6.40
2019-05-05T22:27:50.172Z,6.30
2019-05-05T22:30:17.360Z,6.20
2019-05-05T22:32:44.538Z,6.10
2019-05-05T22:35:14.035Z,6.10
2019-05-05T22:37:41.131Z,6.00
2019-05-05T22:40:17.588Z,6.00
2019-05-05T22:42:44.773Z,6.00
2019-05-05T22:45:14.108Z,6.10
2019-05-05T22:47:41.044Z,6.10
2019-05-05T22:50:08.432Z,6.10
2019-05-05T22:52:35.617Z,6.10
2019-05-05T22:55:04.546Z,6.00
2019-05-05T22:57:34.284Z,6.00
2019-05-05T23:00:03.628Z,6.00
2019-05-05T23:02:33.952Z,6.00
2019-05-05T23:05:29.858Z,5.90
2019-05-05T23:07:57.160Z,5.90
2019-05-05T23:10:24.332Z,5.90
2019-05-05T23:12:51.516Z,6.00
2019-05-05T23:15:18.808Z,5.90
2019-05-05T23:18:06.531Z,5.90
2019-05-05T23:20:53.804Z,5.90
2019-05-05T23:23:28.092Z,5.90
2019-05-05T23:25:56.522Z,6.00
2019-05-05T23:28:26.347Z,5.90
2019-05-05T23:30:54.560Z,5.90
2019-05-05T23:33:21.860Z,6.00
2019-05-05T23:35:49.040Z,6.00
2019-05-05T23:38:16.220Z,5.90
2019-05-05T23:40:43.429Z,5.90
2019-05-05T23:43:10.600Z,6.00
2019-05-05T23:45:37.784Z,5.80
2019-05-05T23:48:04.978Z,5.80
2019-05-05T23:50:33.824Z,5.90
2019-05-05T23:53:01.244Z,5.90
2019-05-05T23:55:28.440Z,5.90
2019-05-05T23:57:55.622Z,5.90
